Time;durP1;ratioP1;P1;durP2;ratioP2;P2;SDS_P1;SDS_P2;PMS_P1;PMS_P2;Temp;Humidity;BMP_temperature;BMP_pressure;BME280_temperature;BME280_humidity;BME280_pressure;Samples;Min_cycle;Max_cycle;Signal;HPM_P1;HPM_P2
2022/01/20 18:25:35;;;;;;;0.90;0.90;;;;;;;2.85;100.00;103322.75;4897446;22;4725669;-69
2022/01/20 18:28:02;;;;;;;1.52;1.42;;;;;;;2.84;100.00;103317.47;5014880;28;20053;-69
2022/01/20 18:30:27;;;;;;;2.00;1.90;;;;;;;2.81;100.00;103318.28;5006699;28;20493;-69
2022/01/20 18:32:57;;;;;;;1.05;1.05;;;;;;;2.87;100.00;103326.31;5000956;28;20026;-69
2022/01/20 18:35:22;;;;;;;;;;;;;;;2.82;100.00;103322.66;5016709;28;20029;-69
2022/01/20 18:37:48;;;;;;;1.83;1.73;;;;;;;2.89;100.00;103318.47;5021489;28;19932;-69
2022/01/20 18:40:13;;;;;;;1.20;1.20;;;;;;;2.87;100.00;103323.69;5019853;28;20029;-69
2022/01/20 18:42:39;;;;;;;1.17;1.17;;;;;;;3.00;100.00;103314.41;5020187;28;20046;-69
2022/01/20 18:45:05;;;;;;;2.05;1.75;;;;;;;2.93;100.00;103318.59;5009635;28;20474;-69
2022/01/20 18:47:32;;;;;;;1.15;1.15;;;;;;;3.03;100.00;103323.28;5009379;28;20103;-70
2022/01/20 18:49:57;;;;;;;1.20;1.20;;;;;;;2.95;100.00;103308.16;5014685;28;20018;-70
2022/01/20 18:52:22;;;;;;;1.15;1.15;;;;;;;2.83;100.00;103306.09;5028189;28;20049;-70
2022/01/20 18:54:47;;;;;;;1.10;1.10;;;;;;;2.79;100.00;103306.84;5034064;28;20029;-69
2022/01/20 18:57:13;;;;;;;1.05;1.05;;;;;;;2.72;100.00;103306.63;5025354;28;20034;-70
2022/01/20 18:59:38;;;;;;;2.28;2.08;;;;;;;2.59;100.00;103318.50;5025072;28;20030;-72
2022/01/20 19:02:06;;;;;;;1.50;1.40;;;;;;;2.39;100.00;103326.63;5023765;28;20044;-73
2022/01/20 19:04:40;;;;;;;1.15;1.15;;;;;;;2.35;100.00;103323.03;5022055;28;20080;-70
2022/01/20 19:07:06;;;;;;;1.20;1.20;;;;;;;2.29;100.00;103322.84;5021700;28;20029;-70
2022/01/20 19:09:34;;;;;;;1.00;1.00;;;;;;;2.13;100.00;103320.59;5021004;28;20084;-69
2022/01/20 19:12:09;;;;;;;1.10;1.10;;;;;;;2.12;100.00;103329.31;5019446;28;20034;-69
2022/01/20 19:14:34;;;;;;;1.10;1.10;;;;;;;2.00;100.00;103331.50;5017284;28;20079;-69
2022/01/20 19:17:01;;;;;;;1.10;1.10;;;;;;;1.77;100.00;103331.63;5016740;28;20030;-70
2022/01/20 19:19:27;;;;;;;1.10;1.10;;;;;;;1.63;100.00;103331.19;5015818;28;20029;-69
2022/01/20 19:21:53;;;;;;;1.20;1.20;;;;;;;1.68;100.00;103331.31;5015664;28;20030;-70
2022/01/20 19:24:19;;;;;;;1.30;1.30;;;;;;;1.61;100.00;103318.88;5016071;28;20036;-69
2022/01/20 19:26:45;;;;;;;1.52;1.42;;;;;;;1.63;100.00;103320.69;5016027;28;20018;-69
2022/01/20 19:29:11;;;;;;;1.33;1.30;;;;;;;1.87;100.00;103315.38;5015864;28;20029;-69
2022/01/20 19:31:36;;;;;;;1.85;1.75;;;;;;;1.86;100.00;103309.22;5016089;28;20026;-69
2022/01/20 19:34:02;;;;;;;1.40;1.30;;;;;;;2.02;100.00;103319.34;5016908;28;20030;-70
2022/01/20 19:36:27;;;;;;;1.20;1.20;;;;;;;2.05;100.00;103339.56;5016074;28;20077;-70
2022/01/20 19:38:53;;;;;;;1.40;1.30;;;;;;;2.25;100.00;103341.06;5016520;28;20038;-69
2022/01/20 19:41:18;;;;;;;1.10;1.10;;;;;;;2.44;100.00;103339.03;5016801;28;20022;-68
2022/01/20 19:43:43;;;;;;;1.50;1.40;;;;;;;2.40;100.00;103346.75;5016752;28;20026;-69
2022/01/20 19:46:09;;;;;;;1.10;1.10;;;;;;;2.31;100.00;103341.25;5016399;28;20022;-73
2022/01/20 19:48:35;;;;;;;1.98;1.88;;;;;;;2.46;100.00;103346.97;5040579;28;20034;-71
2022/01/20 19:51:02;;;;;;;2.38;2.22;;;;;;;2.46;100.00;103336.47;5037776;28;20033;-70
2022/01/20 19:53:28;;;;;;;1.10;1.10;;;;;;;2.39;100.00;103327.53;5016251;28;20037;-69
2022/01/20 19:55:54;;;;;;;2.42;2.22;;;;;;;2.39;100.00;103338.03;5016783;28;20030;-70
2022/01/20 19:58:19;;;;;;;1.20;1.20;;;;;;;2.31;100.00;103336.91;5014385;28;20026;-69
2022/01/20 20:00:46;;;;;;;1.20;1.20;;;;;;;2.13;100.00;103327.59;5015487;28;20149;-70
2022/01/20 20:03:12;;;;;;;3.05;2.85;;;;;;;2.09;100.00;103339.69;5017475;28;20060;-70
2022/01/20 20:05:43;;;;;;;1.27;1.25;;;;;;;2.00;100.00;103346.38;5021938;28;20053;-70
2022/01/20 20:08:10;;;;;;;1.15;1.15;;;;;;;2.01;100.00;103367.38;5015282;28;20394;-69
2022/01/20 20:10:35;;;;;;;1.40;1.33;;;;;;;1.84;100.00;103360.72;5016455;28;20080;-71
2022/01/20 20:13:01;;;;;;;1.88;1.77;;;;;;;1.71;100.00;103374.25;5015129;28;20030;-72
2022/01/20 20:15:26;;;;;;;1.35;1.30;;;;;;;1.75;100.00;103375.25;5017695;28;20061;-71
2022/01/20 20:17:52;;;;;;;1.30;1.30;;;;;;;1.91;100.00;103385.41;5016451;28;20041;-71
2022/01/20 20:20:22;;;;;;;1.23;1.23;;;;;;;1.93;100.00;103374.09;5016854;28;20465;-71
2022/01/20 20:22:48;;;;;;;1.20;1.20;;;;;;;2.14;100.00;103360.81;5016084;28;20065;-71
2022/01/20 20:25:14;;;;;;;1.55;1.45;;;;;;;2.22;100.00;103373.28;5016233;28;20049;-73
2022/01/20 20:27:40;;;;;;;1.73;1.63;;;;;;;2.31;100.00;103370.97;4997861;28;20113;-71
2022/01/20 20:30:06;;;;;;;1.30;1.30;;;;;;;2.15;100.00;103373.06;5015727;28;20510;-71
2022/01/20 20:32:31;;;;;;;1.35;1.30;;;;;;;2.07;100.00;103385.94;5014296;28;20034;-72
2022/01/20 20:34:57;;;;;;;1.40;1.30;;;;;;;2.10;100.00;103392.97;5014979;28;20044;-71
2022/01/20 20:37:23;;;;;;;1.20;1.20;;;;;;;1.97;100.00;103383.84;5014881;28;20064;-73
2022/01/20 20:39:48;;;;;;;1.50;1.40;;;;;;;1.99;100.00;103390.03;5018699;28;20087;-73
2022/01/20 20:42:14;;;;;;;1.30;1.30;;;;;;;1.91;100.00;103382.78;5019127;28;20440;-71
2022/01/20 20:44:39;;;;;;;3.05;2.25;;;;;;;1.69;100.00;103385.50;5021179;28;20037;-72
2022/01/20 20:47:05;;;;;;;1.45;1.35;;;;;;;1.59;100.00;103392.16;5020539;28;20041;-73
2022/01/20 20:49:32;;;;;;;1.40;1.30;;;;;;;1.57;100.00;103388.59;5019525;28;20029;-70
2022/01/20 20:52:03;;;;;;;1.77;1.67;;;;;;;1.45;100.00;103390.78;5016645;28;20083;-74
2022/01/20 20:54:29;;;;;;;1.67;1.58;;;;;;;1.42;100.00;103388.06;5017101;28;20604;-71
2022/01/20 20:56:55;;;;;;;1.50;1.40;;;;;;;1.39;100.00;103391.47;5017036;28;20017;-71
2022/01/20 20:59:21;;;;;;;1.50;1.40;;;;;;;1.41;100.00;103397.66;5018918;28;20021;-71
2022/01/20 21:01:47;;;;;;;1.67;1.58;;;;;;;1.34;100.00;103397.34;5020719;28;20040;-70
2022/01/20 21:04:13;;;;;;;1.50;1.40;;;;;;;1.49;100.00;103405.78;5021801;28;20493;-71
2022/01/20 21:06:38;;;;;;;1.58;1.48;;;;;;;1.48;100.00;103404.88;5020658;28;20026;-71
2022/01/20 21:09:04;;;;;;;1.55;1.45;;;;;;;1.63;100.00;103411.47;5024742;28;20030;-72
2022/01/20 21:11:29;;;;;;;2.22;2.08;;;;;;;2.19;100.00;103412.53;5032904;28;20473;-74
2022/01/20 21:13:56;;;;;;;1.60;1.50;;;;;;;2.46;100.00;103416.03;5030447;28;20029;-75
2022/01/20 21:16:22;;;;;;;1.65;1.55;;;;;;;2.42;100.00;103405.41;5020297;28;20033;-73
2022/01/20 21:18:47;;;;;;;1.85;1.75;;;;;;;2.27;100.00;103403.16;5020519;28;20038;-75
2022/01/20 21:21:13;;;;;;;1.50;1.40;;;;;;;2.18;100.00;103408.13;5030510;28;20037;-77
2022/01/20 21:23:42;;;;;;;1.30;1.30;;;;;;;2.08;100.00;103408.66;5019487;28;20022;-74
2022/01/20 21:26:07;;;;;;;1.60;1.50;;;;;;;1.91;100.00;103404.59;5023383;28;20060;-71
2022/01/20 21:28:33;;;;;;;1.40;1.30;;;;;;;1.74;100.00;103416.25;5029144;28;20025;-72
2022/01/20 21:31:00;;;;;;;1.48;1.40;;;;;;;1.76;100.00;103411.97;5026774;28;20568;-70
2022/01/20 21:33:35;;;;;;;1.38;1.30;;;;;;;1.75;100.00;103419.78;5027123;28;20033;-68
2022/01/20 21:36:06;;;;;;;1.20;1.20;;;;;;;1.73;100.00;103411.88;5012591;28;20476;-72
2022/01/20 21:38:34;;;;;;;2.00;1.90;;;;;;;1.58;100.00;103417.47;5009379;28;20040;-70
2022/01/20 21:41:01;;;;;;;1.30;1.30;;;;;;;1.57;100.00;103435.75;5007702;28;20036;-70
2022/01/20 21:43:26;;;;;;;1.40;1.30;;;;;;;1.68;100.00;103441.34;5009948;28;20093;-70
2022/01/20 21:45:51;;;;;;;1.20;1.20;;;;;;;1.96;100.00;103434.47;5008147;28;20030;-71
2022/01/20 21:48:17;;;;;;;1.33;1.30;;;;;;;1.96;100.00;103437.09;5014052;28;20040;-70
2022/01/20 21:50:47;;;;;;;1.50;1.40;;;;;;;2.00;100.00;103436.34;5027330;28;20034;-70
2022/01/20 21:53:12;;;;;;;2.03;1.92;;;;;;;1.94;100.00;103430.03;5027469;28;20030;-71
2022/01/20 21:55:38;;;;;;;1.20;1.20;;;;;;;1.95;100.00;103440.56;5027717;28;20033;-70
2022/01/20 21:58:03;;;;;;;1.38;1.35;;;;;;;1.91;100.00;103443.03;5044870;28;20053;-71
2022/01/20 22:00:28;;;;;;;2.25;2.05;;;;;;;1.88;100.00;103456.00;5029920;28;20025;-72
2022/01/20 22:02:53;;;;;;;2.42;2.22;;;;;;;2.02;100.00;103453.03;5023458;28;20084;-71
2022/01/20 22:05:19;;;;;;;1.30;1.30;;;;;;;1.91;100.00;103449.16;5003342;28;20031;-70
2022/01/20 22:07:44;;;;;;;1.30;1.30;;;;;;;1.98;100.00;103451.16;4999842;28;20038;-73
2022/01/20 22:10:22;;;;;;;1.77;1.67;;;;;;;1.89;100.00;103442.97;5002399;28;20034;-73
2022/01/20 22:12:47;;;;;;;1.20;1.20;;;;;;;1.89;100.00;103431.59;5009990;28;20022;-70
2022/01/20 22:15:13;;;;;;;1.45;1.35;;;;;;;1.92;100.00;103437.84;5010570;28;20026;-70
2022/01/20 22:17:38;;;;;;;1.20;1.20;;;;;;;1.82;100.00;103433.13;5020016;28;20053;-70
2022/01/20 22:20:04;;;;;;;1.30;1.30;;;;;;;1.70;100.00;103437.97;5016585;28;20025;-71
2022/01/20 22:22:29;;;;;;;1.20;1.20;;;;;;;1.58;100.00;103431.41;5015702;28;20076;-70
2022/01/20 22:24:54;;;;;;;1.45;1.38;;;;;;;1.42;100.00;103429.94;5015891;28;20069;-70
2022/01/20 22:27:20;;;;;;;1.30;1.30;;;;;;;1.37;100.00;103429.78;5016567;28;20026;-71
2022/01/20 22:29:45;;;;;;;1.10;1.10;;;;;;;1.34;100.00;103432.28;5015469;28;20022;-70
2022/01/20 22:32:10;;;;;;;1.50;1.40;;;;;;;1.36;100.00;103438.47;5017680;28;20049;-69
2022/01/20 22:34:36;;;;;;;1.40;1.30;;;;;;;1.11;100.00;103441.03;5019242;28;20026;-69
2022/01/20 22:37:01;;;;;;;1.50;1.40;;;;;;;0.94;100.00;103439.53;5015544;28;20018;-69
2022/01/20 22:39:27;;;;;;;1.30;1.30;;;;;;;0.83;100.00;103453.03;5014595;28;20053;-68
2022/01/20 22:41:52;;;;;;;1.35;1.30;;;;;;;0.74;100.00;103437.84;5018405;28;20025;-69
2022/01/20 22:44:18;;;;;;;2.85;2.58;;;;;;;0.76;100.00;103440.53;5013643;28;20027;-68
2022/01/20 22:46:43;;;;;;;1.50;1.40;;;;;;;0.72;100.00;103441.25;5014476;28;20072;-69
2022/01/20 22:49:11;;;;;;;1.60;1.50;;;;;;;0.78;100.00;103452.84;5016462;28;20029;-71
2022/01/20 22:51:37;;;;;;;1.60;1.50;;;;;;;0.77;100.00;103450.19;5014607;28;20022;-69
2022/01/20 22:54:02;;;;;;;1.50;1.40;;;;;;;0.71;100.00;103447.34;5015558;28;20018;-68
2022/01/20 22:56:27;;;;;;;1.50;1.40;;;;;;;0.78;100.00;103447.63;5012785;28;20031;-68
2022/01/20 22:58:54;;;;;;;1.65;1.55;;;;;;;0.65;100.00;103449.69;5018432;28;20030;-68
2022/01/20 23:01:21;;;;;;;1.60;1.50;;;;;;;0.64;100.00;103447.91;5018562;28;20052;-69
2022/01/20 23:03:46;;;;;;;1.60;1.50;;;;;;;0.67;100.00;103458.50;5019438;28;20076;-69
2022/01/20 23:06:12;;;;;;;1.50;1.40;;;;;;;0.70;100.00;103456.91;5018423;28;20026;-70
2022/01/20 23:08:37;;;;;;;1.60;1.50;;;;;;;0.59;100.00;103465.16;5020595;28;20083;-69
2022/01/20 23:11:03;;;;;;;1.80;1.70;;;;;;;0.43;100.00;103465.34;5016439;28;20036;-69
2022/01/20 23:13:28;;;;;;;1.60;1.50;;;;;;;0.35;100.00;103479.88;5019955;28;20029;-69
2022/01/20 23:16:00;;;;;;;1.60;1.50;;;;;;;0.20;100.00;103485.34;5020228;28;20108;-69
2022/01/20 23:18:35;;;;;;;1.70;1.60;;;;;;;0.13;100.00;103480.69;5022462;28;20022;-69
2022/01/20 23:21:03;;;;;;;1.85;1.75;;;;;;;0.06;100.00;103483.88;5019252;28;20029;-69
2022/01/20 23:23:33;;;;;;;1.63;1.52;;;;;;;0.02;100.00;103481.97;5023322;28;20041;-70
2022/01/20 23:26:06;;;;;;;1.80;1.70;;;;;;;0.00;100.00;103481.03;5021698;28;20050;-70
2022/01/20 23:28:49;;;;;;;1.85;1.75;;;;;;;-0.02;100.00;103482.69;5021178;28;20030;-69
2022/01/20 23:31:17;;;;;;;2.08;1.98;;;;;;;-0.03;100.00;103480.88;5020378;28;20094;-69
2022/01/20 23:33:46;;;;;;;1.75;1.65;;;;;;;0.06;100.00;103496.06;5010947;28;20493;-70
2022/01/20 23:36:12;;;;;;;2.27;2.17;;;;;;;0.09;100.00;103488.34;5020374;28;20038;-69
2022/01/20 23:38:39;;;;;;;1.75;1.65;;;;;;;0.18;100.00;103497.47;5020692;28;20034;-69
2022/01/20 23:41:15;;;;;;;1.88;1.77;;;;;;;0.30;100.00;103489.25;5021923;28;20054;-69
2022/01/20 23:49:01;;;;;;;1.83;1.73;;;;;;;0.54;100.00;103484.97;5020670;28;20048;-67
2022/01/20 23:51:26;;;;;;;1.70;1.60;;;;;;;0.58;100.00;103484.28;5020835;28;20030;-68
2022/01/20 23:53:52;;;;;;;1.90;1.80;;;;;;;0.78;100.00;103485.97;5020613;28;20036;-68
2022/01/20 23:56:19;;;;;;;1.70;1.60;;;;;;;1.13;100.00;103493.44;5021231;28;20037;-68
2022/01/20 23:58:45;;;;;;;1.60;1.50;;;;;;;1.38;100.00;103501.38;5020837;28;20425;-67
